Superstar Express — 3FFX9 — position and weather

sailwx.info

Track history (hours):
 
Tides and Currents Weather Stations Pressure Air Temp Water Temp Dewpoint Dewpoint Depression Visibility Wind Speed Wind Dir Waves Ship Positions

Superstar Express

Operator: P & O Irish Sea

Last reported at 2018-Feb-03 15:13 UTC. Time now 2018-Feb-19 10:18 UTC.
Position N 25°35' W 079°35'.
Warning: this ship's position is 15 days out of date.

Length 183 m; draft 6.9 m.

Type: Ship. MMSI: 351360000.

Date/timePositionNaut miles runAvg speedWind from/ knotsBaromVisibWave heightAir tempDewpointWater temp
2018-Feb-03 15:13N 25°35' W 079°35'2 9.8
2018-Feb-03 15:00N 25°37' W 079°35'5 9.6
2018-Feb-03 14:26N 25°42' W 079°34'7 9.6
2018-Feb-03 13:42N 25°49' W 079°33'2 9.8
2018-Feb-03 13:30N 25°51' W 079°32'5 9.6
2018-Feb-03 12:58N 25°56' W 079°31'4 9.7
2018-Feb-03 12:31N 26°00' W 079°31'5 9.7
2018-Feb-03 12:00N 26°05' W 079°30'5 9.9
2018-Feb-03 11:31N 26°10' W 079°29'5 9.9
2018-Feb-03 11:00N 26°15' W 079°29'33610.2
2018-Feb-02 02:11N 31°46' W 080°31'211.3
2018-Feb-02 01:58N 31°48' W 080°33'511.1
2018-Feb-02 01:30N 31°53' W 080°36'510.9
2018-Feb-02 01:01N 31°57' W 080°40'610.5
2018-Feb-02 00:28N 31°59' W 080°46'510.6
2018-Feb-02 00:01N 32°02' W 080°51'5 9.4
2018-Feb-01 23:30N 32°03' W 080°56'5 9.3
2018-Feb-01 23:01N 32°06' W 081°00'5 4.9
2018-Feb-01 21:58N 32°05' W 081°06'0 0.0
2018-Feb-01 21:28N 32°05' W 081°06'0 0.0
2018-Feb-01 19:28N 32°05' W 081°06'0 0.0
2018-Feb-01 18:58N 32°05' W 081°06'0 0.0
2018-Feb-01 18:28N 32°05' W 081°06'0 0.0
2018-Feb-01 17:58N 32°05' W 081°06'0 0.0
2018-Feb-01 17:28N 32°05' W 081°06'0 0.0
2018-Feb-01 16:58N 32°05' W 081°06'0 0.0
2018-Feb-01 16:28N 32°05' W 081°06'0 0.0
2018-Feb-01 15:58N 32°05' W 081°06'0 0.0
2018-Feb-01 15:28N 32°05' W 081°06'0 0.0
2018-Feb-01 14:40N 32°05' W 081°06'0 0.0
2018-Feb-01 13:28N 32°05' W 081°06'0 0.0
2018-Feb-01 12:52N 32°05' W 081°06'0 0.0
2018-Feb-01 12:28N 32°05' W 081°06'0 0.0
2018-Feb-01 11:58N 32°05' W 081°06'0 0.0
2018-Feb-01 10:52N 32°05' W 081°06'0 0.0
2018-Feb-01 10:28N 32°05' W 081°06'0 0.0
2018-Feb-01 09:58N 32°05' W 081°06'0 0.0
2018-Feb-01 09:28N 32°05' W 081°06'0 0.0
2018-Feb-01 08:58N 32°05' W 081°06'0 0.0
2018-Feb-01 08:28N 32°05' W 081°06'0 0.0
2018-Feb-01 07:28N 32°05' W 081°06'0 0.0
2018-Feb-01 06:58N 32°05' W 081°06'0 0.0
2018-Feb-01 06:28N 32°05' W 081°06'0 0.0
2018-Feb-01 05:58N 32°05' W 081°06'0 0.0
2018-Feb-01 05:28N 32°05' W 081°06'0 0.0
2018-Feb-01 04:58N 32°05' W 081°06'0 0.0
2018-Feb-01 04:28N 32°05' W 081°06'0 0.0
2018-Feb-01 03:52N 32°05' W 081°06'0 0.0
2018-Feb-01 02:58N 32°05' W 081°06'0 0.0
2018-Feb-01 02:28N 32°05' W 081°06'0 0.0
2018-Feb-01 01:58N 32°05' W 081°06'0 0.0
2018-Feb-01 01:22N 32°05' W 081°06'0 0.0
2018-Feb-01 00:58N 32°05' W 081°06'0 0.0
2018-Feb-01 00:28N 32°05' W 081°06'0 0.0
2018-Jan-31 23:58N 32°05' W 081°06'0 0.0
2018-Jan-31 22:58N 32°05' W 081°06'0 0.0
2018-Jan-31 22:16N 32°05' W 081°06'0 0.0
2018-Jan-31 20:58N 32°05' W 081°06'0 0.0
2018-Jan-31 20:28N 32°05' W 081°06'0 0.0
2018-Jan-31 19:58N 32°05' W 081°06'0 0.0
2018-Jan-31 19:28N 32°05' W 081°06'0 0.0
2018-Jan-31 18:58N 32°05' W 081°06'0 0.0
2018-Jan-31 18:28N 32°05' W 081°06'0 0.0
2018-Jan-31 17:58N 32°05' W 081°06'0 0.0
2018-Jan-31 17:28N 32°05' W 081°06'0 0.0
2018-Jan-31 16:58N 32°05' W 081°06'0 0.0
2018-Jan-31 16:16N 32°05' W 081°06'0 0.0
2018-Jan-31 15:58N 32°05' W 081°06'0 0.0
2018-Jan-31 15:28N 32°05' W 081°06'0 0.0
2018-Jan-31 14:58N 32°05' W 081°06'0 0.0
2018-Jan-31 14:28N 32°05' W 081°06'0 0.0
2018-Jan-31 12:52N 32°05' W 081°06'0 0.0
2018-Jan-31 12:28N 32°05' W 081°06'0 0.0
2018-Jan-31 11:58N 32°05' W 081°06'0 0.0
2018-Jan-31 11:22N 32°05' W 081°06'0 0.0
2018-Jan-31 10:58N 32°05' W 081°06'0 0.0
2018-Jan-31 10:28N 32°05' W 081°06'0 0.0
2018-Jan-31 09:58N 32°05' W 081°06'0 0.0
2018-Jan-31 09:28N 32°05' W 081°06'0 0.0
2018-Jan-31 08:58N 32°05' W 081°06'0 0.0
2018-Jan-31 08:22N 32°05' W 081°06'0 0.0
2018-Jan-31 07:52N 32°05' W 081°06'0 0.0
2018-Jan-31 07:28N 32°05' W 081°06'0 0.0
2018-Jan-31 06:58N 32°05' W 081°06'0 0.0
2018-Jan-31 06:28N 32°05' W 081°06'0 0.0
2018-Jan-31 05:52N 32°05' W 081°06'0 0.0
2018-Jan-31 05:28N 32°05' W 081°06'0 0.0
2018-Jan-31 04:58N 32°05' W 081°06'0 0.0
2018-Jan-31 04:28N 32°05' W 081°06'0 0.0
2018-Jan-31 03:52N 32°05' W 081°06'0 0.0
2018-Jan-31 03:22N 32°05' W 081°06'0 0.0
2018-Jan-31 02:58N 32°05' W 081°06'0 0.0
2018-Jan-31 02:28N 32°05' W 081°06'0 0.0
2018-Jan-31 01:58N 32°05' W 081°06'0 0.0
2018-Jan-31 01:28N 32°05' W 081°06'0 0.0
2018-Jan-31 00:52N 32°05' W 081°06'0 0.3
2018-Jan-31 00:00N 32°06' W 081°06'1 2.0
2018-Jan-30 23:30N 32°06' W 081°07'3 5.9
2018-Jan-30 23:00N 32°05' W 081°04'4 8.4
2018-Jan-30 22:30N 32°05' W 080°59'1212.1
2018-Jan-30 21:30N 31°59' W 080°47'612.1
2018-Jan-30 21:00N 31°58' W 080°40'5 9.3
2018-Jan-30 20:29N 31°59' W 080°34'  
2018-Jan-28 05:00N 39°01' W 075°09'713.4
2018-Jan-28 04:30N 39°07' W 075°13'714.2
2018-Jan-28 04:00N 39°13' W 075°17'714.4
2018-Jan-28 03:30N 39°18' W 075°23'713.8
2018-Jan-28 03:00N 39°24' W 075°29'612.6
2018-Jan-28 02:30N 39°29' W 075°34'612.1
2018-Jan-28 02:01N 39°35' W 075°33'5 9.9
2018-Jan-28 01:30N 39°40' W 075°32'611.1
2018-Jan-28 01:00N 39°45' W 075°30'5 9.3
2018-Jan-28 00:30N 39°48' W 075°25'4 8.8
2018-Jan-28 00:00N 39°51' W 075°21'5 9.3
2018-Jan-27 23:30N 39°51' W 075°15'5 9.4
2018-Jan-27 23:00N 39°53' W 075°09'1 2.1
2018-Jan-27 22:30N 39°54' W 075°08'0 0.0
2018-Jan-27 21:58N 39°54' W 075°08'0 0.0
2018-Jan-27 21:25N 39°54' W 075°08'0 0.0
2018-Jan-27 20:58N 39°54' W 075°08'0 0.0
2018-Jan-27 20:28N 39°54' W 075°08'0 0.0
2018-Jan-27 19:58N 39°54' W 075°08'0 0.0
2018-Jan-27 19:28N 39°54' W 075°08'0 0.0
2018-Jan-27 18:58N 39°54' W 075°08'0 0.0
2018-Jan-27 18:28N 39°54' W 075°08'0 0.0
2018-Jan-27 17:58N 39°54' W 075°08'0 0.0
2018-Jan-27 17:28N 39°54' W 075°08'0 0.0
2018-Jan-27 16:58N 39°54' W 075°08'0 0.0
2018-Jan-27 16:28N 39°54' W 075°08'0 0.0
2018-Jan-27 15:58N 39°54' W 075°08'0 0.0
2018-Jan-27 15:28N 39°54' W 075°08'0 0.0
2018-Jan-27 14:58N 39°54' W 075°08'0 0.0
2018-Jan-27 14:28N 39°54' W 075°08'0 0.0
2018-Jan-27 13:58N 39°54' W 075°08'0 0.0
2018-Jan-27 13:28N 39°54' W 075°08'0 0.0
2018-Jan-27 12:58N 39°54' W 075°08'0 0.0
2018-Jan-27 12:28N 39°54' W 075°08'0 0.0
2018-Jan-27 11:58N 39°54' W 075°08'0 0.0
2018-Jan-27 11:28N 39°54' W 075°08'0 0.0
2018-Jan-27 10:58N 39°54' W 075°08'0 0.0
2018-Jan-27 10:28N 39°54' W 075°08'0 0.0
2018-Jan-27 09:58N 39°54' W 075°08'0 0.0
2018-Jan-27 09:28N 39°54' W 075°08'0 0.0
2018-Jan-27 08:58N 39°54' W 075°08'0 0.0
2018-Jan-27 08:28N 39°54' W 075°08'0 0.0
2018-Jan-27 07:58N 39°54' W 075°08'0 0.0
2018-Jan-27 07:28N 39°54' W 075°08'0 0.0
2018-Jan-27 06:58N 39°54' W 075°08'0 0.0
2018-Jan-27 06:25N 39°54' W 075°08'0 0.0
2018-Jan-27 05:58N 39°54' W 075°08'0 0.0
2018-Jan-27 05:28N 39°54' W 075°08'0 0.0
2018-Jan-27 04:58N 39°54' W 075°08'0 0.0
2018-Jan-27 04:28N 39°54' W 075°08'0 0.0
2018-Jan-27 03:58N 39°54' W 075°08'0 0.0
2018-Jan-27 03:28N 39°54' W 075°08'0 0.0
2018-Jan-27 02:58N 39°54' W 075°08'0 0.0
2018-Jan-27 02:28N 39°54' W 075°08'0 0.0
2018-Jan-27 01:58N 39°54' W 075°08'0 0.0
2018-Jan-27 01:28N 39°54' W 075°08'0 0.0
2018-Jan-27 00:58N 39°54' W 075°08'0 0.0
2018-Jan-27 00:28N 39°54' W 075°08'0 0.0
2018-Jan-26 23:58N 39°54' W 075°08'0 0.0
2018-Jan-26 23:28N 39°54' W 075°08'0 0.0
2018-Jan-26 22:58N 39°54' W 075°08'0 0.0
2018-Jan-26 22:28N 39°54' W 075°08'0 0.0
2018-Jan-26 21:58N 39°54' W 075°08'0 0.0
2018-Jan-26 21:28N 39°54' W 075°08'0 0.0
2018-Jan-26 20:58N 39°54' W 075°08'0 0.0
2018-Jan-26 20:28N 39°54' W 075°08'0 0.0
2018-Jan-26 19:58N 39°54' W 075°08'0 0.0
2018-Jan-26 19:28N 39°54' W 075°08'0 0.0
2018-Jan-26 18:58N 39°54' W 075°08'0 0.0
2018-Jan-26 18:28N 39°54' W 075°08'0 0.0
2018-Jan-26 17:58N 39°54' W 075°08'0 0.0
2018-Jan-26 17:28N 39°54' W 075°08'0 0.0
2018-Jan-26 16:58N 39°54' W 075°08'0 0.0
2018-Jan-26 16:28N 39°54' W 075°08'0 0.0
2018-Jan-26 15:58N 39°54' W 075°08'0 0.0
2018-Jan-26 15:25N 39°54' W 075°08'0 0.0
2018-Jan-26 14:58N 39°54' W 075°08'0 0.0
2018-Jan-26 14:28N 39°54' W 075°08'0 0.0
2018-Jan-26 13:58N 39°54' W 075°08'0 0.0
2018-Jan-26 13:28N 39°54' W 075°08'0 0.0
2018-Jan-26 12:58N 39°54' W 075°08'0 0.0
2018-Jan-26 12:28N 39°54' W 075°08'0 0.0
2018-Jan-26 11:58N 39°54' W 075°08'0 0.0
2018-Jan-26 11:28N 39°54' W 075°08'0 0.0
2018-Jan-26 10:58N 39°54' W 075°08'0 0.0
2018-Jan-26 10:28N 39°54' W 075°08'0 0.0
2018-Jan-26 09:58N 39°54' W 075°08'0 0.0
2018-Jan-26 09:28N 39°54' W 075°08'0 0.0
2018-Jan-26 08:58N 39°54' W 075°08'0 0.0
2018-Jan-26 08:28N 39°54' W 075°08'0 0.0
2018-Jan-26 07:58N 39°54' W 075°08'0 0.0
2018-Jan-26 07:28N 39°54' W 075°08'0 0.0
2018-Jan-26 06:58N 39°54' W 075°08'0 0.0
2018-Jan-26 06:28N 39°54' W 075°08'0 0.0
2018-Jan-26 05:58N 39°54' W 075°08'0 0.0
2018-Jan-26 05:28N 39°54' W 075°08'0 0.0
2018-Jan-26 04:58N 39°54' W 075°08'0 0.0
2018-Jan-26 04:28N 39°54' W 075°08'0 0.0
2018-Jan-26 03:58N 39°54' W 075°08'0 0.0
2018-Jan-26 03:28N 39°54' W 075°08'0 0.0
2018-Jan-26 02:58N 39°54' W 075°08'0 0.0
2018-Jan-26 02:28N 39°54' W 075°08'0 0.0
2018-Jan-26 01:58N 39°54' W 075°08'0 0.0
2018-Jan-26 01:28N 39°54' W 075°08'0 0.0
2018-Jan-26 00:58N 39°54' W 075°08'0 0.0
2018-Jan-26 00:28N 39°54' W 075°08'0 0.0
2018-Jan-25 23:58N 39°54' W 075°08'0 0.0
2018-Jan-25 23:28N 39°54' W 075°08'0 0.0
2018-Jan-25 22:52N 39°54' W 075°08'0 0.0
2018-Jan-25 22:28N 39°54' W 075°08'0 0.0
2018-Jan-25 21:58N 39°54' W 075°08'0 0.0
2018-Jan-25 21:28N 39°54' W 075°08'0 0.0
2018-Jan-25 20:58N 39°54' W 075°08'0 0.0
2018-Jan-25 20:28N 39°54' W 075°08'0 0.0
2018-Jan-25 19:58N 39°54' W 075°08'0 0.0
2018-Jan-25 19:28N 39°54' W 075°08'0 0.1
2018-Jan-25 19:00N 39°54' W 075°08'1 1.8
2018-Jan-25 18:30N 39°53' W 075°09'3 6.0
2018-Jan-25 18:00N 39°52' W 075°12'4 7.6
2018-Jan-25 17:30N 39°51' W 075°17'4 7.8
2018-Jan-25 17:00N 39°50' W 075°22'4 7.8
2018-Jan-25 16:30N 39°48' W 075°26'5 9.2
2018-Jan-25 16:00N 39°44' W 075°30'4 8.7
2018-Jan-25 15:30N 39°40' W 075°32'5 9.1
2018-Jan-25 15:00N 39°36' W 075°34'5 9.7
2018-Jan-25 14:30N 39°31' W 075°33'5 9.4
2018-Jan-25 14:00N 39°26' W 075°32'510.3
2018-Jan-25 13:30N 39°23' W 075°28'510.5
2018-Jan-25 13:00N 39°19' W 075°23'510.5
2018-Jan-25 12:30N 39°15' W 075°19'510.9
2018-Jan-25 12:00N 39°10' W 075°15'511.0
2018-Jan-25 11:30N 39°05' W 075°11'510.5
2018-Jan-25 11:00N 39°01' W 075°09'510.7
2018-Jan-25 10:30N 38°56' W 075°06'510.3
2018-Jan-25 10:00N 38°51' W 075°03'  
Track history (hours):
 
Tides and Currents Weather Stations Pressure Air Temp Water Temp Dewpoint Dewpoint Depression Visibility Wind Speed Wind Dir Waves Ship Positions

Superstar Express

Operator: P & O Irish Sea

Last reported at 2018-Feb-03 15:13 UTC. Time now 2018-Feb-19 10:18 UTC.
Position N 25°35' W 079°35'.
Warning: this ship's position is 15 days out of date.

Length 183 m; draft 6.9 m.

Type: Ship. MMSI: 351360000.

Date/timePositionNaut miles runAvg speedWind from/ knotsBaromVisibWave heightAir tempDewpointWater temp
2018-Feb-03 15:13N 25°35' W 079°35'2 9.8
2018-Feb-03 15:00N 25°37' W 079°35'5 9.6
2018-Feb-03 14:26N 25°42' W 079°34'7 9.6
2018-Feb-03 13:42N 25°49' W 079°33'2 9.8
2018-Feb-03 13:30N 25°51' W 079°32'5 9.6
2018-Feb-03 12:58N 25°56' W 079°31'4 9.7
2018-Feb-03 12:31N 26°00' W 079°31'5 9.7
2018-Feb-03 12:00N 26°05' W 079°30'5 9.9
2018-Feb-03 11:31N 26°10' W 079°29'5 9.9
2018-Feb-03 11:00N 26°15' W 079°29'33610.2
2018-Feb-02 02:11N 31°46' W 080°31'211.3
2018-Feb-02 01:58N 31°48' W 080°33'511.1
2018-Feb-02 01:30N 31°53' W 080°36'510.9
2018-Feb-02 01:01N 31°57' W 080°40'610.5
2018-Feb-02 00:28N 31°59' W 080°46'510.6
2018-Feb-02 00:01N 32°02' W 080°51'5 9.4
2018-Feb-01 23:30N 32°03' W 080°56'5 9.3
2018-Feb-01 23:01N 32°06' W 081°00'5 4.9
2018-Feb-01 21:58N 32°05' W 081°06'0 0.0
2018-Feb-01 21:28N 32°05' W 081°06'0 0.0
2018-Feb-01 19:28N 32°05' W 081°06'0 0.0
2018-Feb-01 18:58N 32°05' W 081°06'0 0.0
2018-Feb-01 18:28N 32°05' W 081°06'0 0.0
2018-Feb-01 17:58N 32°05' W 081°06'0 0.0
2018-Feb-01 17:28N 32°05' W 081°06'0 0.0
2018-Feb-01 16:58N 32°05' W 081°06'0 0.0
2018-Feb-01 16:28N 32°05' W 081°06'0 0.0
2018-Feb-01 15:58N 32°05' W 081°06'0 0.0
2018-Feb-01 15:28N 32°05' W 081°06'0 0.0
2018-Feb-01 14:40N 32°05' W 081°06'0 0.0
2018-Feb-01 13:28N 32°05' W 081°06'0 0.0
2018-Feb-01 12:52N 32°05' W 081°06'0 0.0
2018-Feb-01 12:28N 32°05' W 081°06'0 0.0
2018-Feb-01 11:58N 32°05' W 081°06'0 0.0
2018-Feb-01 10:52N 32°05' W 081°06'0 0.0
2018-Feb-01 10:28N 32°05' W 081°06'0 0.0
2018-Feb-01 09:58N 32°05' W 081°06'0 0.0
2018-Feb-01 09:28N 32°05' W 081°06'0 0.0
2018-Feb-01 08:58N 32°05' W 081°06'0 0.0
2018-Feb-01 08:28N 32°05' W 081°06'0 0.0
2018-Feb-01 07:28N 32°05' W 081°06'0 0.0
2018-Feb-01 06:58N 32°05' W 081°06'0 0.0
2018-Feb-01 06:28N 32°05' W 081°06'0 0.0
2018-Feb-01 05:58N 32°05' W 081°06'0 0.0
2018-Feb-01 05:28N 32°05' W 081°06'0 0.0
2018-Feb-01 04:58N 32°05' W 081°06'0 0.0
2018-Feb-01 04:28N 32°05' W 081°06'0 0.0
2018-Feb-01 03:52N 32°05' W 081°06'0 0.0
2018-Feb-01 02:58N 32°05' W 081°06'0 0.0
2018-Feb-01 02:28N 32°05' W 081°06'0 0.0
2018-Feb-01 01:58N 32°05' W 081°06'0 0.0
2018-Feb-01 01:22N 32°05' W 081°06'0 0.0
2018-Feb-01 00:58N 32°05' W 081°06'0 0.0
2018-Feb-01 00:28N 32°05' W 081°06'0 0.0
2018-Jan-31 23:58N 32°05' W 081°06'0 0.0
2018-Jan-31 22:58N 32°05' W 081°06'0 0.0
2018-Jan-31 22:16N 32°05' W 081°06'0 0.0
2018-Jan-31 20:58N 32°05' W 081°06'0 0.0
2018-Jan-31 20:28N 32°05' W 081°06'0 0.0
2018-Jan-31 19:58N 32°05' W 081°06'0 0.0
2018-Jan-31 19:28N 32°05' W 081°06'0 0.0
2018-Jan-31 18:58N 32°05' W 081°06'0 0.0
2018-Jan-31 18:28N 32°05' W 081°06'0 0.0
2018-Jan-31 17:58N 32°05' W 081°06'0 0.0
2018-Jan-31 17:28N 32°05' W 081°06'0 0.0
2018-Jan-31 16:58N 32°05' W 081°06'0 0.0
2018-Jan-31 16:16N 32°05' W 081°06'0 0.0
2018-Jan-31 15:58N 32°05' W 081°06'0 0.0
2018-Jan-31 15:28N 32°05' W 081°06'0 0.0
2018-Jan-31 14:58N 32°05' W 081°06'0 0.0
2018-Jan-31 14:28N 32°05' W 081°06'0 0.0
2018-Jan-31 12:52N 32°05' W 081°06'0 0.0
2018-Jan-31 12:28N 32°05' W 081°06'0 0.0
2018-Jan-31 11:58N 32°05' W 081°06'0 0.0
2018-Jan-31 11:22N 32°05' W 081°06'0 0.0
2018-Jan-31 10:58N 32°05' W 081°06'0 0.0
2018-Jan-31 10:28N 32°05' W 081°06'0 0.0
2018-Jan-31 09:58N 32°05' W 081°06'0 0.0
2018-Jan-31 09:28N 32°05' W 081°06'0 0.0
2018-Jan-31 08:58N 32°05' W 081°06'0 0.0
2018-Jan-31 08:22N 32°05' W 081°06'0 0.0
2018-Jan-31 07:52N 32°05' W 081°06'0 0.0
2018-Jan-31 07:28N 32°05' W 081°06'0 0.0
2018-Jan-31 06:58N 32°05' W 081°06'0 0.0
2018-Jan-31 06:28N 32°05' W 081°06'0 0.0
2018-Jan-31 05:52N 32°05' W 081°06'0 0.0
2018-Jan-31 05:28N 32°05' W 081°06'0 0.0
2018-Jan-31 04:58N 32°05' W 081°06'0 0.0
2018-Jan-31 04:28N 32°05' W 081°06'0 0.0
2018-Jan-31 03:52N 32°05' W 081°06'0 0.0
2018-Jan-31 03:22N 32°05' W 081°06'0 0.0
2018-Jan-31 02:58N 32°05' W 081°06'0 0.0
2018-Jan-31 02:28N 32°05' W 081°06'0 0.0
2018-Jan-31 01:58N 32°05' W 081°06'0 0.0
2018-Jan-31 01:28N 32°05' W 081°06'0 0.0
2018-Jan-31 00:52N 32°05' W 081°06'0 0.3
2018-Jan-31 00:00N 32°06' W 081°06'1 2.0
2018-Jan-30 23:30N 32°06' W 081°07'3 5.9
2018-Jan-30 23:00N 32°05' W 081°04'4 8.4
2018-Jan-30 22:30N 32°05' W 080°59'1212.1
2018-Jan-30 21:30N 31°59' W 080°47'612.1
2018-Jan-30 21:00N 31°58' W 080°40'5 9.3
2018-Jan-30 20:29N 31°59' W 080°34'  
2018-Jan-28 05:00N 39°01' W 075°09'713.4
2018-Jan-28 04:30N 39°07' W 075°13'714.2
2018-Jan-28 04:00N 39°13' W 075°17'714.4
2018-Jan-28 03:30N 39°18' W 075°23'713.8
2018-Jan-28 03:00N 39°24' W 075°29'612.6
2018-Jan-28 02:30N 39°29' W 075°34'612.1
2018-Jan-28 02:01N 39°35' W 075°33'5 9.9
2018-Jan-28 01:30N 39°40' W 075°32'611.1
2018-Jan-28 01:00N 39°45' W 075°30'5 9.3
2018-Jan-28 00:30N 39°48' W 075°25'4 8.8
2018-Jan-28 00:00N 39°51' W 075°21'5 9.3
2018-Jan-27 23:30N 39°51' W 075°15'5 9.4
2018-Jan-27 23:00N 39°53' W 075°09'1 2.1
2018-Jan-27 22:30N 39°54' W 075°08'0 0.0
2018-Jan-27 21:58N 39°54' W 075°08'0 0.0
2018-Jan-27 21:25N 39°54' W 075°08'0 0.0
2018-Jan-27 20:58N 39°54' W 075°08'0 0.0
2018-Jan-27 20:28N 39°54' W 075°08'0 0.0
2018-Jan-27 19:58N 39°54' W 075°08'0 0.0
2018-Jan-27 19:28N 39°54' W 075°08'0 0.0
2018-Jan-27 18:58N 39°54' W 075°08'0 0.0
2018-Jan-27 18:28N 39°54' W 075°08'0 0.0
2018-Jan-27 17:58N 39°54' W 075°08'0 0.0
2018-Jan-27 17:28N 39°54' W 075°08'0 0.0
2018-Jan-27 16:58N 39°54' W 075°08'0 0.0
2018-Jan-27 16:28N 39°54' W 075°08'0 0.0
2018-Jan-27 15:58N 39°54' W 075°08'0 0.0
2018-Jan-27 15:28N 39°54' W 075°08'0 0.0
2018-Jan-27 14:58N 39°54' W 075°08'0 0.0
2018-Jan-27 14:28N 39°54' W 075°08'0 0.0
2018-Jan-27 13:58N 39°54' W 075°08'0 0.0
2018-Jan-27 13:28N 39°54' W 075°08'0 0.0
2018-Jan-27 12:58N 39°54' W 075°08'0 0.0
2018-Jan-27 12:28N 39°54' W 075°08'0 0.0
2018-Jan-27 11:58N 39°54' W 075°08'0 0.0
2018-Jan-27 11:28N 39°54' W 075°08'0 0.0
2018-Jan-27 10:58N 39°54' W 075°08'0 0.0
2018-Jan-27 10:28N 39°54' W 075°08'0 0.0
2018-Jan-27 09:58N 39°54' W 075°08'0 0.0
2018-Jan-27 09:28N 39°54' W 075°08'0 0.0
2018-Jan-27 08:58N 39°54' W 075°08'0 0.0
2018-Jan-27 08:28N 39°54' W 075°08'0 0.0
2018-Jan-27 07:58N 39°54' W 075°08'0 0.0
2018-Jan-27 07:28N 39°54' W 075°08'0 0.0
2018-Jan-27 06:58N 39°54' W 075°08'0 0.0
2018-Jan-27 06:25N 39°54' W 075°08'0 0.0
2018-Jan-27 05:58N 39°54' W 075°08'0 0.0
2018-Jan-27 05:28N 39°54' W 075°08'0 0.0
2018-Jan-27 04:58N 39°54' W 075°08'0 0.0
2018-Jan-27 04:28N 39°54' W 075°08'0 0.0
2018-Jan-27 03:58N 39°54' W 075°08'0 0.0
2018-Jan-27 03:28N 39°54' W 075°08'0 0.0
2018-Jan-27 02:58N 39°54' W 075°08'0 0.0
2018-Jan-27 02:28N 39°54' W 075°08'0 0.0
2018-Jan-27 01:58N 39°54' W 075°08'0 0.0
2018-Jan-27 01:28N 39°54' W 075°08'0 0.0
2018-Jan-27 00:58N 39°54' W 075°08'0 0.0
2018-Jan-27 00:28N 39°54' W 075°08'0 0.0
2018-Jan-26 23:58N 39°54' W 075°08'0 0.0
2018-Jan-26 23:28N 39°54' W 075°08'0 0.0
2018-Jan-26 22:58N 39°54' W 075°08'0 0.0
2018-Jan-26 22:28N 39°54' W 075°08'0 0.0
2018-Jan-26 21:58N 39°54' W 075°08'0 0.0
2018-Jan-26 21:28N 39°54' W 075°08'0 0.0
2018-Jan-26 20:58N 39°54' W 075°08'0 0.0
2018-Jan-26 20:28N 39°54' W 075°08'0 0.0
2018-Jan-26 19:58N 39°54' W 075°08'0 0.0
2018-Jan-26 19:28N 39°54' W 075°08'0 0.0
2018-Jan-26 18:58N 39°54' W 075°08'0 0.0
2018-Jan-26 18:28N 39°54' W 075°08'0 0.0
2018-Jan-26 17:58N 39°54' W 075°08'0 0.0
2018-Jan-26 17:28N 39°54' W 075°08'0 0.0
2018-Jan-26 16:58N 39°54' W 075°08'0 0.0
2018-Jan-26 16:28N 39°54' W 075°08'0 0.0
2018-Jan-26 15:58N 39°54' W 075°08'0 0.0
2018-Jan-26 15:25N 39°54' W 075°08'0 0.0
2018-Jan-26 14:58N 39°54' W 075°08'0 0.0
2018-Jan-26 14:28N 39°54' W 075°08'0 0.0
2018-Jan-26 13:58N 39°54' W 075°08'0 0.0
2018-Jan-26 13:28N 39°54' W 075°08'0 0.0
2018-Jan-26 12:58N 39°54' W 075°08'0 0.0
2018-Jan-26 12:28N 39°54' W 075°08'0 0.0
2018-Jan-26 11:58N 39°54' W 075°08'0 0.0
2018-Jan-26 11:28N 39°54' W 075°08'0 0.0
2018-Jan-26 10:58N 39°54' W 075°08'0 0.0
2018-Jan-26 10:28N 39°54' W 075°08'0 0.0
2018-Jan-26 09:58N 39°54' W 075°08'0 0.0
2018-Jan-26 09:28N 39°54' W 075°08'0 0.0
2018-Jan-26 08:58N 39°54' W 075°08'0 0.0
2018-Jan-26 08:28N 39°54' W 075°08'0 0.0
2018-Jan-26 07:58N 39°54' W 075°08'0 0.0
2018-Jan-26 07:28N 39°54' W 075°08'0 0.0
2018-Jan-26 06:58N 39°54' W 075°08'0 0.0
2018-Jan-26 06:28N 39°54' W 075°08'0 0.0
2018-Jan-26 05:58N 39°54' W 075°08'0 0.0
2018-Jan-26 05:28N 39°54' W 075°08'0 0.0
2018-Jan-26 04:58N 39°54' W 075°08'0 0.0
2018-Jan-26 04:28N 39°54' W 075°08'0 0.0
2018-Jan-26 03:58N 39°54' W 075°08'0 0.0
2018-Jan-26 03:28N 39°54' W 075°08'0 0.0
2018-Jan-26 02:58N 39°54' W 075°08'0 0.0
2018-Jan-26 02:28N 39°54' W 075°08'0 0.0
2018-Jan-26 01:58N 39°54' W 075°08'0 0.0
2018-Jan-26 01:28N 39°54' W 075°08'0 0.0
2018-Jan-26 00:58N 39°54' W 075°08'0 0.0
2018-Jan-26 00:28N 39°54' W 075°08'0 0.0
2018-Jan-25 23:58N 39°54' W 075°08'0 0.0
2018-Jan-25 23:28N 39°54' W 075°08'0 0.0
2018-Jan-25 22:52N 39°54' W 075°08'0 0.0
2018-Jan-25 22:28N 39°54' W 075°08'0 0.0
2018-Jan-25 21:58N 39°54' W 075°08'0 0.0
2018-Jan-25 21:28N 39°54' W 075°08'0 0.0
2018-Jan-25 20:58N 39°54' W 075°08'0 0.0
2018-Jan-25 20:28N 39°54' W 075°08'0 0.0
2018-Jan-25 19:58N 39°54' W 075°08'0 0.0
2018-Jan-25 19:28N 39°54' W 075°08'0 0.1
2018-Jan-25 19:00N 39°54' W 075°08'1 1.8
2018-Jan-25 18:30N 39°53' W 075°09'3 6.0
2018-Jan-25 18:00N 39°52' W 075°12'4 7.6
2018-Jan-25 17:30N 39°51' W 075°17'4 7.8
2018-Jan-25 17:00N 39°50' W 075°22'4 7.8
2018-Jan-25 16:30N 39°48' W 075°26'5 9.2
2018-Jan-25 16:00N 39°44' W 075°30'4 8.7
2018-Jan-25 15:30N 39°40' W 075°32'5 9.1
2018-Jan-25 15:00N 39°36' W 075°34'5 9.7
2018-Jan-25 14:30N 39°31' W 075°33'5 9.4
2018-Jan-25 14:00N 39°26' W 075°32'510.3
2018-Jan-25 13:30N 39°23' W 075°28'510.5
2018-Jan-25 13:00N 39°19' W 075°23'510.5
2018-Jan-25 12:30N 39°15' W 075°19'510.9
2018-Jan-25 12:00N 39°10' W 075°15'511.0
2018-Jan-25 11:30N 39°05' W 075°11'510.5
2018-Jan-25 11:00N 39°01' W 075°09'510.7
2018-Jan-25 10:30N 38°56' W 075°06'510.3
2018-Jan-25 10:00N 38°51' W 075°03'  

Dump ship's entire track history